Nags Head, North Carolina
Current Conditions -  °F | °C
As of 2:55 AM on Thursday 29 Jan 2015 (Local Time) from KFFA Reporting Station
Clear Clear  
Wind Chill: 29°   Ceiling: Unl
Heat Index: 33°   Visibility: 10mi
Dew Point: 17°   Wind: 5mph
Humidity: 53%   Direction: 350°N
Pressure: 30.3"   Gusts: NA
Location:  35.96°N, 75.62°W
Report Text: KFFA 290755Z AUTO 35004KT 10SM CLR 01/M08 A3030 RMK AO2 T00061081
Loading
Personal Weather Stations






























Interactive Weather Map New forecast layout! Learn more

10-Day Weather Forecast

Advertisements
Track Severe Weather on mobile